Time;durP1;ratioP1;P1;durP2;ratioP2;P2;SDS_P1;SDS_P2;PMS_P1;PMS_P2;Temp;Humidity;BMP_temperature;BMP_pressure;BME280_temperature;BME280_humidity;BME280_pressure;Samples;Min_cycle;Max_cycle;Signal;HPM_P1;HPM_P2
2023/06/22 00:02:59;;;;;;;;;;;20.60;72.90;;;;;;21002004;28;19931;-56
2023/06/22 00:13:00;;;;;;;;;;;20.60;72.30;;;;;;21001365;28;19954;-56
2023/06/22 00:23:00;;;;;;;;;;;20.40;72.40;;;;;;20999766;28;20065;-56
2023/06/22 00:33:01;;;;;;;;;;;20.50;72.20;;;;;;20999435;28;20011;-55
2023/06/22 00:43:02;;;;;;;;;;;20.50;71.80;;;;;;20997441;28;19924;-55
2023/06/22 00:53:09;;;;;;;;;;;20.40;71.60;;;;;;20997533;28;20274;-56
2023/06/22 01:03:10;;;;;;;;;;;20.40;71.60;;;;;;20997567;28;20427;-55
2023/06/22 01:13:29;;;;;;;;;;;20.40;71.20;;;;;;20996335;28;20011;-56
2023/06/22 01:23:37;;;;;;;;;;;20.30;71.30;;;;;;20996272;28;19978;-56
2023/06/22 01:33:40;;;;;;;;;;;20.40;72.20;;;;;;20996630;28;19968;-56
2023/06/22 01:43:41;;;;;;;;;;;20.20;72.40;;;;;;20994812;28;19939;-56
2023/06/22 01:53:42;;;;;;;;;;;20.20;72.30;;;;;;20996096;28;20019;-56
2023/06/22 02:03:56;;;;;;;;;;;20.10;72.90;;;;;;21000961;28;19924;-55
2023/06/22 02:13:57;;;;;;;;;;;20.10;72.10;;;;;;21009786;28;19931;-55
2023/06/22 02:23:58;;;;;;;;;;;20.10;72.50;;;;;;21008411;28;19924;-57
2023/06/22 02:33:59;;;;;;;;;;;20.20;72.50;;;;;;21009034;28;19928;-56
2023/06/22 02:44:00;;;;;;;;;;;20.20;72.30;;;;;;21006906;28;20019;-56
2023/06/22 02:54:01;;;;;;;;;;;20.20;71.80;;;;;;21006318;28;20350;-57
2023/06/22 03:04:01;;;;;;;;;;;20.20;72.60;;;;;;21005449;28;20324;-55
2023/06/22 03:14:02;;;;;;;;;;;20.00;73.70;;;;;;21005181;28;19976;-55
2023/06/22 03:24:02;;;;;;;;;;;19.80;74.20;;;;;;21004696;28;19924;-55
2023/06/22 03:34:03;;;;;;;;;;;19.70;73.40;;;;;;21004607;28;20381;-55
2023/06/22 03:44:04;;;;;;;;;;;19.60;73.00;;;;;;21003265;28;19924;-56
2023/06/22 03:54:04;;;;;;;;;;;19.50;73.20;;;;;;21001621;28;20077;-56
2023/06/22 04:04:05;;;;;;;;;;;19.30;73.80;;;;;;21000612;28;20385;-56
2023/06/22 04:14:06;;;;;;;;;;;19.40;73.70;;;;;;21001314;28;19924;-55
2023/06/22 04:24:06;;;;;;;;;;;19.40;73.40;;;;;;20998605;28;20007;-56
2023/06/22 04:34:07;;;;;;;;;;;19.30;73.50;;;;;;20999929;28;19925;-56
2023/06/22 04:44:12;;;;;;;;;;;19.20;73.90;;;;;;20998893;28;20016;-56
2023/06/22 04:54:13;;;;;;;;;;;19.20;74.10;;;;;;20998323;28;20374;-55
2023/06/22 05:04:13;;;;;;;;;;;19.50;72.80;;;;;;20997671;28;20288;-56
2023/06/22 05:14:14;;;;;;;;;;;19.50;73.00;;;;;;20995591;28;19931;-55
2023/06/22 05:24:15;;;;;;;;;;;19.60;73.80;;;;;;20995957;28;19932;-56
2023/06/22 05:34:15;;;;;;;;;;;19.70;73.60;;;;;;20994978;28;19979;-57
2023/06/22 05:44:16;;;;;;;;;;;19.70;73.10;;;;;;21011265;28;19979;-55
2023/06/22 05:54:17;;;;;;;;;;;19.80;72.80;;;;;;21010888;28;19925;-56
2023/06/22 06:04:18;;;;;;;;;;;19.90;72.80;;;;;;21011085;28;19924;-55
2023/06/22 06:14:20;;;;;;;;;;;19.90;72.80;;;;;;21010333;28;20042;-57
2023/06/22 06:24:20;;;;;;;;;;;20.00;72.00;;;;;;21009742;28;20042;-56
2023/06/22 06:34:21;;;;;;;;;;;20.10;71.70;;;;;;21009349;28;19964;-55
2023/06/22 06:44:21;;;;;;;;;;;20.30;70.50;;;;;;21006687;28;19968;-56
2023/06/22 06:54:22;;;;;;;;;;;20.60;69.10;;;;;;21004850;28;19990;-56
2023/06/22 07:04:23;;;;;;;;;;;21.10;68.30;;;;;;21005218;28;19968;-55
2023/06/22 07:14:23;;;;;;;;;;;21.70;66.60;;;;;;21005664;28;20408;-57
2023/06/22 07:24:24;;;;;;;;;;;22.40;63.30;;;;;;21003674;28;19971;-55
2023/06/22 07:34:24;;;;;;;;;;;22.80;62.30;;;;;;21003435;28;20281;-56
2023/06/22 07:44:25;;;;;;;;;;;23.30;59.60;;;;;;21003340;28;20013;-57
2023/06/22 07:54:26;;;;;;;;;;;23.60;57.90;;;;;;21000872;28;19979;-56
2023/06/22 08:04:28;;;;;;;;;;;23.90;57.40;;;;;;21001950;28;19978;-59
2023/06/22 08:14:29;;;;;;;;;;;24.30;56.50;;;;;;21001809;28;20394;-56
2023/06/22 08:24:30;;;;;;;;;;;24.70;55.40;;;;;;20999496;28;19929;-57
2023/06/22 08:34:31;;;;;;;;;;;24.80;54.20;;;;;;21000363;28;20015;-57
2023/06/22 08:44:31;;;;;;;;;;;24.70;53.40;;;;;;20999030;28;19928;-55
2023/06/22 08:54:34;;;;;;;;;;;25.10;52.60;;;;;;20997244;28;19924;-56
2023/06/22 09:04:35;;;;;;;;;;;25.10;52.10;;;;;;20997106;28;19979;-56
2023/06/22 09:14:35;;;;;;;;;;;25.30;51.40;;;;;;20998532;28;20370;-56
2023/06/22 09:24:36;;;;;;;;;;;25.60;51.30;;;;;;20996724;28;19924;-56
2023/06/22 09:34:37;;;;;;;;;;;25.50;51.40;;;;;;20995475;28;19931;-59
2023/06/22 09:44:37;;;;;;;;;;;25.60;50.60;;;;;;20996030;28;20374;-58
2023/06/22 09:54:38;;;;;;;;;;;25.80;52.60;;;;;;20995449;28;19931;-55
2023/06/22 10:04:40;;;;;;;;;;;25.80;50.40;;;;;;20994650;28;19931;-58
2023/06/22 10:14:40;;;;;;;;;;;26.20;49.70;;;;;;20993641;28;19930;-61
2023/06/22 10:24:44;;;;;;;;;;;26.40;48.40;;;;;;20997738;28;20421;-61
2023/06/22 10:34:45;;;;;;;;;;;26.00;49.20;;;;;;21006729;28;19928;-60
2023/06/22 10:44:46;;;;;;;;;;;26.40;47.50;;;;;;21006219;28;19977;-61
2023/06/22 10:54:46;;;;;;;;;;;26.60;48.50;;;;;;21005422;28;20389;-60
2023/06/22 11:04:47;;;;;;;;;;;26.70;47.00;;;;;;21004835;28;20304;-60
2023/06/22 11:14:50;;;;;;;;;;;26.90;46.10;;;;;;21005223;28;19924;-56
2023/06/22 11:24:50;;;;;;;;;;;27.20;45.00;;;;;;21002432;28;20007;-56
2023/06/22 11:34:51;;;;;;;;;;;27.10;43.80;;;;;;21002317;28;20491;-57
2023/06/22 11:44:52;;;;;;;;;;;27.30;42.90;;;;;;21003293;28;20297;-57
2023/06/22 11:54:52;;;;;;;;;;;27.30;42.20;;;;;;21001676;28;19925;-57
2023/06/22 12:04:55;;;;;;;;;;;27.20;42.20;;;;;;21001836;28;19932;-55
2023/06/22 12:14:56;;;;;;;;;;;27.80;40.00;;;;;;20999045;28;19924;-56
2023/06/22 12:24:56;;;;;;;;;;;27.80;39.00;;;;;;20998479;28;20400;-55
2023/06/22 12:34:57;;;;;;;;;;;28.00;39.00;;;;;;20997406;28;20289;-57
2023/06/22 12:44:58;;;;;;;;;;;28.40;37.70;;;;;;20996534;28;19928;-56
2023/06/22 12:54:58;;;;;;;;;;;28.50;37.60;;;;;;20997051;28;20365;-57
2023/06/22 13:04:59;;;;;;;;;;;28.40;37.80;;;;;;20997722;28;19964;-56
2023/06/22 13:14:59;;;;;;;;;;;28.60;38.50;;;;;;20997651;28;19934;-57
2023/06/22 13:25:00;;;;;;;;;;;28.80;37.40;;;;;;20997278;28;20048;-57
2023/06/22 13:35:01;;;;;;;;;;;28.70;36.90;;;;;;20996210;28;19925;-57
2023/06/22 13:45:02;;;;;;;;;;;29.00;37.00;;;;;;20995801;28;19982;-56
2023/06/22 13:55:02;;;;;;;;;;;29.10;36.00;;;;;;20994348;28;20060;-55
2023/06/22 14:05:03;;;;;;;;;;;28.80;36.30;;;;;;21009413;28;19994;-56
2023/06/22 14:15:04;;;;;;;;;;;28.80;36.90;;;;;;21009359;28;19928;-57
2023/06/22 14:25:05;;;;;;;;;;;28.70;36.00;;;;;;21007758;28;20016;-55
2023/06/22 14:35:06;;;;;;;;;;;28.70;35.60;;;;;;21009504;28;19924;-56
2023/06/22 14:45:07;;;;;;;;;;;28.70;36.20;;;;;;21007584;28;19925;-57
2023/06/22 14:55:07;;;;;;;;;;;29.00;35.30;;;;;;21006922;28;19925;-57
2023/06/22 15:05:08;;;;;;;;;;;28.90;35.00;;;;;;21007703;28;20411;-56
2023/06/22 15:15:09;;;;;;;;;;;28.80;35.10;;;;;;21005588;28;19976;-57
2023/06/22 15:25:10;;;;;;;;;;;28.90;35.40;;;;;;21004637;28;19929;-57
2023/06/22 15:35:11;;;;;;;;;;;29.00;35.00;;;;;;21004664;28;19924;-59
2023/06/22 15:45:11;;;;;;;;;;;29.10;34.50;;;;;;20971693;28;19929;-56
2023/06/22 15:55:12;;;;;;;;;;;28.90;35.00;;;;;;20896965;28;19970;-60
2023/06/22 16:05:13;;;;;;;;;;;29.30;34.50;;;;;;20890184;28;19925;-60
2023/06/22 16:15:14;;;;;;;;;;;29.30;34.20;;;;;;20912690;28;19925;-55
2023/06/22 16:25:14;;;;;;;;;;;29.10;34.50;;;;;;20902074;28;19975;-57
2023/06/22 16:35:15;;;;;;;;;;;29.20;34.80;;;;;;20883339;28;19935;-56
2023/06/22 16:45:16;;;;;;;;;;;29.60;35.60;;;;;;20868268;28;19935;-55
2023/06/22 16:55:16;;;;;;;;;;;29.40;34.80;;;;;;20892030;28;20405;-55
2023/06/22 17:05:18;;;;;;;;;;;29.40;35.50;;;;;;20902649;28;20719;-56
2023/06/22 17:15:20;;;;;;;;;;;29.50;34.50;;;;;;20907777;28;19932;-56
2023/06/22 17:25:21;;;;;;;;;;;29.40;34.70;;;;;;20909548;28;19928;-57
2023/06/22 17:35:22;;;;;;;;;;;29.40;34.60;;;;;;20907305;28;19929;-54
2023/06/22 17:45:23;;;;;;;;;;;29.40;34.30;;;;;;20906188;28;19931;-55
2023/06/22 17:55:24;;;;;;;;;;;29.20;34.80;;;;;;20891947;28;19925;-57
2023/06/22 18:05:32;;;;;;;;;;;29.20;34.70;;;;;;20909645;28;19948;-57
2023/06/22 18:15:34;;;;;;;;;;;29.20;34.70;;;;;;20902812;28;20151;-56
2023/06/22 18:25:37;;;;;;;;;;;29.10;34.40;;;;;;20906259;28;20447;-57
2023/06/22 18:35:38;;;;;;;;;;;29.00;34.60;;;;;;20909554;28;19978;-58
2023/06/22 18:45:39;;;;;;;;;;;28.90;34.90;;;;;;20914840;28;19925;-58
2023/06/22 18:55:40;;;;;;;;;;;28.80;35.10;;;;;;20925872;28;20021;-58
2023/06/22 19:05:42;;;;;;;;;;;28.60;35.40;;;;;;20924838;28;19928;-58
2023/06/22 19:15:43;;;;;;;;;;;28.50;35.70;;;;;;20922083;28;20019;-59
2023/06/22 19:25:44;;;;;;;;;;;28.30;35.90;;;;;;20920774;28;20015;-57
2023/06/22 19:35:46;;;;;;;;;;;28.30;36.10;;;;;;20921509;28;19925;-57
2023/06/22 19:45:47;;;;;;;;;;;28.10;36.50;;;;;;20920697;28;19988;-57
2023/06/22 19:55:48;;;;;;;;;;;28.00;36.90;;;;;;20919418;28;20389;-56
2023/06/22 20:05:49;;;;;;;;;;;27.90;37.40;;;;;;20919646;28;20405;-58
2023/06/22 20:15:50;;;;;;;;;;;27.70;38.00;;;;;;20918543;28;19924;-58
2023/06/22 20:25:53;;;;;;;;;;;27.60;38.60;;;;;;20917461;28;19925;-58
2023/06/22 20:35:54;;;;;;;;;;;27.50;39.20;;;;;;20915821;28;19931;-59
2023/06/22 20:45:58;;;;;;;;;;;27.30;39.90;;;;;;20913869;28;21613;-56
2023/06/22 20:55:59;;;;;;;;;;;27.20;40.30;;;;;;20915277;28;19925;-58
2023/06/22 21:05:59;;;;;;;;;;;27.00;41.40;;;;;;20912502;28;19932;-57
2023/06/22 21:16:00;;;;;;;;;;;26.90;41.20;;;;;;20912767;28;20389;-57
2023/06/22 21:26:01;;;;;;;;;;;26.90;41.70;;;;;;20910766;28;19929;-56
2023/06/22 21:36:01;;;;;;;;;;;26.80;41.90;;;;;;20912286;28;19999;-56
2023/06/22 21:46:02;;;;;;;;;;;26.50;42.80;;;;;;20913188;28;19967;-60
2023/06/22 21:56:03;;;;;;;;;;;26.50;42.70;;;;;;20913126;28;19975;-56
2023/06/22 22:06:03;;;;;;;;;;;26.50;42.80;;;;;;20912250;28;20277;-57
2023/06/22 22:16:05;;;;;;;;;;;26.50;42.50;;;;;;20911920;28;20001;-57
2023/06/22 22:26:06;;;;;;;;;;;26.10;43.50;;;;;;20925442;28;19931;-58
2023/06/22 22:36:06;;;;;;;;;;;25.80;44.90;;;;;;20927088;28;19964;-58
2023/06/22 22:46:07;;;;;;;;;;;25.60;45.60;;;;;;20926483;28;19925;-58
2023/06/22 22:56:08;;;;;;;;;;;25.60;46.40;;;;;;20924977;28;19925;-56
2023/06/22 23:06:08;;;;;;;;;;;25.40;46.50;;;;;;20923824;28;20409;-56
2023/06/22 23:16:09;;;;;;;;;;;25.10;47.30;;;;;;20922762;28;19932;-56
2023/06/22 23:26:10;;;;;;;;;;;24.90;47.40;;;;;;20922609;28;20386;-56
2023/06/22 23:36:10;;;;;;;;;;;24.80;47.30;;;;;;20920881;28;20322;-56
2023/06/22 23:46:11;;;;;;;;;;;24.60;47.90;;;;;;20922263;28;19935;-56
2023/06/22 23:56:12;;;;;;;;;;;24.50;48.30;;;;;;20921537;28;19935;-56
